createdAt,value
2019-06-27T00:01:12.396Z,0.60
2019-06-27T00:03:38.663Z,0.50
2019-06-27T00:06:04.889Z,0.50
2019-06-27T00:08:31.150Z,0.60
2019-06-27T00:10:57.410Z,0.47
2019-06-27T00:13:23.632Z,0.70
2019-06-27T00:15:49.903Z,0.53
2019-06-27T00:18:16.137Z,0.57
2019-06-27T00:20:42.426Z,0.90
2019-06-27T00:23:08.650Z,0.60
2019-06-27T00:25:34.774Z,0.60
2019-06-27T00:28:01.019Z,0.67
2019-06-27T00:30:27.319Z,0.60
2019-06-27T00:32:53.570Z,0.60
2019-06-27T00:35:19.811Z,0.50
2019-06-27T00:37:46.066Z,1.00
2019-06-27T00:40:12.896Z,0.60
2019-06-27T00:42:39.172Z,0.60
2019-06-27T00:45:05.795Z,0.67
2019-06-27T00:47:31.973Z,0.90
2019-06-27T00:49:58.240Z,0.50
2019-06-27T00:52:24.514Z,0.73
2019-06-27T00:54:50.855Z,0.80
2019-06-27T00:57:17.203Z,0.90
2019-06-27T00:59:43.461Z,1.17
2019-06-27T01:02:09.705Z,0.80
2019-06-27T01:04:35.974Z,0.70
2019-06-27T01:07:02.115Z,0.83
2019-06-27T01:09:28.383Z,0.70
2019-06-27T01:11:54.615Z,0.60
2019-06-27T01:14:20.868Z,0.83
2019-06-27T01:16:47.119Z,0.53
2019-06-27T01:19:13.370Z,0.67
2019-06-27T01:21:39.719Z,0.73
2019-06-27T01:24:05.969Z,0.80
2019-06-27T01:26:32.220Z,0.70
2019-06-27T01:28:58.471Z,0.90
2019-06-27T01:31:24.717Z,0.80
2019-06-27T01:33:50.969Z,0.80
2019-06-27T01:36:17.229Z,0.70
2019-06-27T01:38:43.485Z,0.77
2019-06-27T01:41:09.773Z,1.03
2019-06-27T01:43:36.008Z,1.10
2019-06-27T01:46:02.766Z,0.80
2019-06-27T01:48:29.023Z,0.67
2019-06-27T01:50:55.165Z,0.60
2019-06-27T01:53:21.442Z,0.60
2019-06-27T01:55:47.603Z,0.63
2019-06-27T01:58:13.841Z,0.90
2019-06-27T02:00:40.195Z,0.80
2019-06-27T02:03:06.437Z,0.67
2019-06-27T02:05:32.596Z,0.63
2019-06-27T02:07:58.832Z,0.70
2019-06-27T02:10:25.077Z,0.87
2019-06-27T02:12:51.223Z,0.57
2019-06-27T02:15:21.821Z,0.93
2019-06-27T02:17:46.527Z,0.60
2019-06-27T02:20:14.771Z,0.80
2019-06-27T02:22:41.017Z,0.60
2019-06-27T02:25:07.575Z,0.77
2019-06-27T02:27:33.817Z,0.57
2019-06-27T02:30:00.081Z,0.60
2019-06-27T02:32:26.313Z,0.70
2019-06-27T02:34:52.549Z,0.80
2019-06-27T02:37:18.808Z,0.90
2019-06-27T02:39:44.948Z,0.70
2019-06-27T02:42:11.252Z,0.50
2019-06-27T02:44:37.473Z,0.70
2019-06-27T02:47:03.724Z,0.70
2019-06-27T02:49:29.980Z,0.57
2019-06-27T02:51:56.222Z,0.57
2019-06-27T02:54:22.475Z,0.87
2019-06-27T02:56:48.729Z,0.70
2019-06-27T02:59:14.884Z,0.60
2019-06-27T03:01:41.152Z,0.60
2019-06-27T03:04:07.381Z,0.50
2019-06-27T03:06:33.619Z,0.70
2019-06-27T03:08:59.867Z,0.40
2019-06-27T03:11:26.101Z,0.33
2019-06-27T03:13:52.339Z,0.50
2019-06-27T03:16:18.593Z,0.63
2019-06-27T03:18:44.836Z,0.57
2019-06-27T03:21:10.983Z,0.50
2019-06-27T03:23:37.233Z,0.40
2019-06-27T03:26:03.472Z,0.57
2019-06-27T03:28:49.967Z,0.53
2019-06-27T03:30:57.794Z,0.50
2019-06-27T03:33:24.034Z,0.40
2019-06-27T03:35:50.277Z,0.50
2019-06-27T03:38:16.539Z,0.53
2019-06-27T03:40:42.679Z,0.40
2019-06-27T03:43:08.931Z,0.40
2019-06-27T03:45:35.212Z,0.43
2019-06-27T03:48:01.505Z,0.60
2019-06-27T03:50:27.754Z,0.20
2019-06-27T03:52:53.906Z,0.27
2019-06-27T03:55:20.208Z,0.40
2019-06-27T03:57:46.368Z,0.40
2019-06-27T04:00:16.318Z,0.30
2019-06-27T04:02:42.513Z,0.30
2019-06-27T04:05:08.781Z,0.47
2019-06-27T04:07:34.989Z,0.40
2019-06-27T04:10:01.270Z,0.30
2019-06-27T04:12:27.515Z,0.30
2019-06-27T04:14:53.652Z,0.37
2019-06-27T04:17:19.926Z,0.33
2019-06-27T04:19:46.164Z,0.30
2019-06-27T04:22:17.118Z,0.20
2019-06-27T04:24:40.582Z,0.40
2019-06-27T04:27:06.818Z,0.30
2019-06-27T04:29:34.629Z,0.47
2019-06-27T04:32:01.123Z,0.37
2019-06-27T04:34:27.365Z,0.23
2019-06-27T04:36:53.606Z,0.30
2019-06-27T04:39:19.866Z,0.30
2019-06-27T04:41:46.123Z,0.30
2019-06-27T04:44:12.356Z,0.50
2019-06-27T04:46:38.648Z,0.30
2019-06-27T04:49:04.914Z,0.30
2019-06-27T04:51:31.157Z,0.27
2019-06-27T04:53:57.402Z,0.27
2019-06-27T04:56:23.770Z,0.30
2019-06-27T04:58:50.044Z,0.17
2019-06-27T05:01:16.295Z,0.10
2019-06-27T05:03:42.525Z,0.30
2019-06-27T05:06:08.765Z,0.13
2019-06-27T05:08:34.951Z,0.20
2019-06-27T05:11:01.112Z,0.10
2019-06-27T05:13:27.341Z,0.10
2019-06-27T05:15:53.514Z,0.33
2019-06-27T05:18:19.864Z,0.20
2019-06-27T05:20:46.114Z,0.20
2019-06-27T05:23:12.345Z,0.20
2019-06-27T05:25:38.593Z,0.10
2019-06-27T05:28:04.733Z,0.20
2019-06-27T05:30:30.983Z,0.30
2019-06-27T05:32:57.222Z,0.50
2019-06-27T05:35:23.472Z,0.20
2019-06-27T05:37:49.719Z,0.30
2019-06-27T05:40:15.975Z,0.13
2019-06-27T05:42:42.120Z,0.40
2019-06-27T05:45:08.458Z,0.30
2019-06-27T05:47:34.725Z,0.20
2019-06-27T05:50:00.973Z,0.10
2019-06-27T05:52:27.140Z,0.17
2019-06-27T05:54:53.402Z,0.20
2019-06-27T05:57:19.638Z,0.67
2019-06-27T05:59:45.895Z,0.30
2019-06-27T06:02:12.113Z,0.20
2019-06-27T06:04:38.368Z,0.10
2019-06-27T06:07:04.593Z,0.10
2019-06-27T06:09:32.951Z,0.10
2019-06-27T06:11:58.993Z,0.10
2019-06-27T06:14:25.239Z,0.20
2019-06-27T06:16:51.489Z,0.20
2019-06-27T06:19:17.816Z,0.20
2019-06-27T06:21:44.056Z,0.10
2019-06-27T06:24:10.289Z,0.20
2019-06-27T06:26:36.576Z,0.20
2019-06-27T06:29:02.952Z,0.10
2019-06-27T06:31:29.188Z,0.20
2019-06-27T06:33:55.309Z,0.10
2019-06-27T06:36:21.748Z,0.10
2019-06-27T06:38:47.992Z,0.10
2019-06-27T06:41:14.162Z,0.20
2019-06-27T06:43:40.288Z,0.10
2019-06-27T06:46:06.718Z,0.10
2019-06-27T06:48:33.005Z,0.20
2019-06-27T06:50:59.337Z,0.17
2019-06-27T06:53:25.580Z,0.10
2019-06-27T06:55:51.807Z,0.20
2019-06-27T06:58:18.054Z,0.10
2019-06-27T07:00:57.054Z,0.17
2019-06-27T07:03:12.421Z,0.00
2019-06-27T07:05:38.648Z,0.10
2019-06-27T07:08:04.791Z,0.00
2019-06-27T07:10:30.913Z,0.10
2019-06-27T07:12:57.046Z,0.17
2019-06-27T07:15:23.205Z,0.10
2019-06-27T07:17:49.343Z,0.13
2019-06-27T07:20:15.899Z,0.10
2019-06-27T07:22:42.130Z,0.10
2019-06-27T07:25:08.471Z,0.10
2019-06-27T07:27:34.589Z,0.17
2019-06-27T07:30:00.828Z,0.00
2019-06-27T07:32:27.052Z,0.10
2019-06-27T07:34:53.217Z,0.20
2019-06-27T07:37:19.346Z,0.10
2019-06-27T07:39:45.588Z,0.00
2019-06-27T07:42:11.856Z,0.10
2019-06-27T07:44:38.077Z,0.10
2019-06-27T07:47:04.325Z,0.27
2019-06-27T07:49:33.193Z,0.20
2019-06-27T07:51:58.731Z,0.10
2019-06-27T07:54:24.971Z,0.10
2019-06-27T07:56:51.219Z,0.10
2019-06-27T07:59:17.454Z,0.10
2019-06-27T08:01:43.724Z,0.03
2019-06-27T08:04:09.985Z,0.00
2019-06-27T08:06:36.229Z,0.10
2019-06-27T08:09:02.575Z,0.10
2019-06-27T08:11:28.798Z,0.10
2019-06-27T08:13:54.953Z,0.10
2019-06-27T08:16:21.188Z,0.10
2019-06-27T08:18:47.437Z,0.10
2019-06-27T08:21:13.679Z,0.10
2019-06-27T08:23:41.892Z,0.07
2019-06-27T08:26:07.956Z,0.13
2019-06-27T08:28:34.241Z,0.10
2019-06-27T08:31:00.472Z,0.10
2019-06-27T08:33:26.713Z,0.10
2019-06-27T08:35:52.943Z,0.33
2019-06-27T08:38:19.175Z,0.30
2019-06-27T08:40:45.422Z,0.10
2019-06-27T08:43:11.642Z,0.20
2019-06-27T08:45:37.925Z,0.10
2019-06-27T08:48:04.149Z,0.03
2019-06-27T08:50:30.386Z,0.10
2019-06-27T08:52:56.633Z,0.10
2019-06-27T08:55:22.772Z,0.10
2019-06-27T08:57:48.907Z,0.10
2019-06-27T09:00:15.836Z,0.27
2019-06-27T09:02:41.990Z,0.10
2019-06-27T09:05:09.218Z,0.10
2019-06-27T09:07:35.463Z,0.17
2019-06-27T09:10:02.686Z,0.10
2019-06-27T09:12:28.929Z,0.20
2019-06-27T09:14:55.192Z,0.00
2019-06-27T09:17:21.426Z,0.40
2019-06-27T09:19:47.568Z,0.10
2019-06-27T09:22:13.804Z,0.00
2019-06-27T09:24:40.086Z,0.20
2019-06-27T09:27:06.319Z,0.20
2019-06-27T09:29:32.558Z,0.10
2019-06-27T09:31:58.788Z,0.20
2019-06-27T09:34:24.924Z,0.10
2019-06-27T09:36:51.162Z,0.30
2019-06-27T09:39:17.395Z,0.17
2019-06-27T09:41:43.533Z,0.00
2019-06-27T09:44:10.902Z,0.20
2019-06-27T09:46:37.172Z,0.10
2019-06-27T09:49:03.419Z,0.10
2019-06-27T09:51:29.554Z,0.30
2019-06-27T09:53:55.819Z,0.10
2019-06-27T09:56:22.125Z,0.20
2019-06-27T09:58:48.372Z,0.20
2019-06-27T10:01:14.628Z,0.20
2019-06-27T10:03:40.864Z,0.10
2019-06-27T10:06:07.096Z,0.10
2019-06-27T10:08:33.327Z,0.00
2019-06-27T10:10:59.455Z,0.30
2019-06-27T10:13:25.724Z,0.10
2019-06-27T10:15:51.957Z,0.10
2019-06-27T10:18:18.715Z,0.10
2019-06-27T10:20:44.956Z,0.20
2019-06-27T10:23:11.185Z,0.20
2019-06-27T10:25:38.376Z,0.20
2019-06-27T10:28:04.583Z,0.20
2019-06-27T10:30:30.736Z,0.10
2019-06-27T10:32:59.792Z,0.10
2019-06-27T10:35:25.108Z,0.10
2019-06-27T10:37:51.228Z,0.13
2019-06-27T10:40:18.363Z,0.10
2019-06-27T10:42:44.613Z,0.10
2019-06-27T10:45:10.843Z,0.20
2019-06-27T10:47:36.983Z,0.13
2019-06-27T10:50:04.640Z,0.20
2019-06-27T10:52:30.945Z,0.10
2019-06-27T10:54:57.246Z,0.20
2019-06-27T10:57:23.484Z,0.20
2019-06-27T10:59:49.710Z,0.20
2019-06-27T11:02:15.847Z,0.10
2019-06-27T11:04:42.091Z,0.10
2019-06-27T11:07:08.342Z,0.10
2019-06-27T11:09:37.491Z,0.00
2019-06-27T11:12:03.723Z,0.20
2019-06-27T11:14:29.969Z,0.00
2019-06-27T11:16:56.106Z,0.10
2019-06-27T11:19:22.364Z,0.10
2019-06-27T11:21:48.580Z,0.10
2019-06-27T11:24:15.057Z,0.43
2019-06-27T11:26:41.310Z,0.20
2019-06-27T11:29:07.595Z,0.17
2019-06-27T11:31:33.750Z,0.10
2019-06-27T11:33:59.972Z,0.10
2019-06-27T11:36:26.204Z,0.10
2019-06-27T11:38:52.435Z,0.20
2019-06-27T11:41:18.707Z,0.20
2019-06-27T11:43:45.087Z,0.20
2019-06-27T11:46:11.346Z,0.10
2019-06-27T11:48:37.573Z,0.10
2019-06-27T11:51:03.821Z,0.10
2019-06-27T11:53:30.048Z,0.13
2019-06-27T11:55:56.170Z,0.10
2019-06-27T11:58:22.429Z,0.10
2019-06-27T12:00:48.651Z,0.20
2019-06-27T12:03:14.899Z,0.20
2019-06-27T12:05:41.145Z,0.20
2019-06-27T12:08:10.827Z,0.17
2019-06-27T12:10:35.418Z,0.20
2019-06-27T12:13:01.590Z,0.10
2019-06-27T12:15:27.789Z,0.10
2019-06-27T12:17:54.031Z,0.03
2019-06-27T12:20:20.284Z,0.20
2019-06-27T12:22:46.507Z,0.10
2019-06-27T12:25:12.759Z,0.10
2019-06-27T12:27:38.903Z,0.07
2019-06-27T12:30:05.976Z,0.20
2019-06-27T12:32:32.200Z,0.13
2019-06-27T12:34:58.456Z,0.07
2019-06-27T12:37:24.702Z,0.20
2019-06-27T12:39:50.847Z,0.10
2019-06-27T12:42:31.524Z,0.17
2019-06-27T12:44:45.211Z,0.00
2019-06-27T12:47:11.450Z,0.10
2019-06-27T12:49:56.937Z,0.10
2019-06-27T12:52:05.631Z,0.10
2019-06-27T12:54:31.763Z,0.10
2019-06-27T12:56:58.005Z,0.10
2019-06-27T12:59:24.138Z,0.10
2019-06-27T13:01:50.419Z,0.37
2019-06-27T13:04:23.358Z,0.27
2019-06-27T13:06:44.672Z,0.30
2019-06-27T13:09:10.907Z,0.20
2019-06-27T13:11:37.154Z,0.13
2019-06-27T13:14:03.420Z,0.17
2019-06-27T13:16:31.160Z,0.23
2019-06-27T13:18:57.710Z,0.20
2019-06-27T13:21:23.950Z,0.20
2019-06-27T13:23:50.199Z,0.10
2019-06-27T13:26:16.419Z,0.10
2019-06-27T13:28:42.731Z,0.10
2019-06-27T13:31:08.951Z,0.60
2019-06-27T13:33:35.191Z,0.20
2019-06-27T13:36:01.430Z,0.10
2019-06-27T13:38:27.658Z,0.10
2019-06-27T13:40:53.889Z,0.13
2019-06-27T13:43:20.131Z,0.30
2019-06-27T13:45:46.357Z,0.10
2019-06-27T13:48:12.626Z,0.20
2019-06-27T13:50:38.852Z,0.20
2019-06-27T13:53:05.116Z,0.20
2019-06-27T13:55:31.361Z,0.30
2019-06-27T13:57:57.991Z,0.30
2019-06-27T14:00:30.617Z,0.10
2019-06-27T14:02:56.865Z,0.10
2019-06-27T14:05:23.096Z,0.13
2019-06-27T14:07:49.345Z,0.20
2019-06-27T14:10:15.695Z,0.10
2019-06-27T14:12:44.767Z,0.07
2019-06-27T14:15:10.885Z,0.10
2019-06-27T14:17:37.102Z,0.20
2019-06-27T14:20:07.752Z,0.10
2019-06-27T14:22:34.305Z,0.20
2019-06-27T14:25:00.625Z,0.10
2019-06-27T14:27:26.863Z,0.17
2019-06-27T14:29:56.446Z,0.20
2019-06-27T14:32:21.162Z,0.10
2019-06-27T14:34:47.415Z,0.20
2019-06-27T14:37:13.641Z,0.17
2019-06-27T14:39:39.814Z,0.10
2019-06-27T14:42:06.025Z,0.10
2019-06-27T14:44:32.252Z,0.13
2019-06-27T14:46:58.497Z,0.10
2019-06-27T14:49:24.750Z,0.10
2019-06-27T14:51:50.991Z,0.20
2019-06-27T14:54:17.241Z,0.20
2019-06-27T14:56:43.488Z,0.20
2019-06-27T14:59:14.015Z,0.10
2019-06-27T15:01:37.963Z,0.20
2019-06-27T15:04:04.093Z,0.20
2019-06-27T15:06:30.314Z,0.10
2019-06-27T15:08:56.932Z,0.10
2019-06-27T15:11:23.149Z,0.17
2019-06-27T15:13:49.287Z,0.20
2019-06-27T15:16:15.409Z,0.20
2019-06-27T15:18:41.678Z,0.17
2019-06-27T15:21:07.924Z,0.20
2019-06-27T15:23:34.113Z,0.10
2019-06-27T15:26:00.361Z,0.20
2019-06-27T15:28:26.626Z,0.20
2019-06-27T15:30:52.892Z,0.13
2019-06-27T15:33:19.113Z,0.10
2019-06-27T15:35:52.359Z,0.20
2019-06-27T15:38:13.484Z,0.20
2019-06-27T15:40:41.026Z,0.10
2019-06-27T15:43:07.162Z,0.10
2019-06-27T15:45:33.578Z,0.20
2019-06-27T15:47:59.772Z,0.20
2019-06-27T15:50:26.062Z,0.20
2019-06-27T15:52:52.369Z,0.20
2019-06-27T15:55:18.600Z,0.17
2019-06-27T15:57:44.736Z,0.20
2019-06-27T16:00:11.269Z,0.20
2019-06-27T16:02:37.511Z,0.20
2019-06-27T16:05:05.421Z,0.10
2019-06-27T16:07:31.646Z,0.20
2019-06-27T16:09:57.880Z,0.20
2019-06-27T16:12:24.113Z,0.17
2019-06-27T16:14:50.240Z,0.20
2019-06-27T16:17:16.485Z,0.30
2019-06-27T16:19:42.733Z,0.30
2019-06-27T16:22:08.997Z,0.73
2019-06-27T16:24:35.247Z,0.20
2019-06-27T16:27:01.392Z,0.10
2019-06-27T16:29:27.666Z,0.20
2019-06-27T16:31:53.898Z,0.20
2019-06-27T16:34:20.950Z,0.20
2019-06-27T16:36:47.187Z,0.20
2019-06-27T16:39:13.449Z,0.20
2019-06-27T16:41:39.739Z,0.10
2019-06-27T16:44:05.990Z,0.17
2019-06-27T16:46:32.235Z,0.20
2019-06-27T16:48:58.506Z,0.20
2019-06-27T16:51:24.737Z,0.20
2019-06-27T16:53:50.892Z,0.10
2019-06-27T16:56:17.134Z,0.20
2019-06-27T16:58:43.369Z,0.30
2019-06-27T17:01:09.623Z,0.13
2019-06-27T17:03:35.890Z,0.20
2019-06-27T17:06:02.154Z,0.20
2019-06-27T17:08:28.397Z,0.20
2019-06-27T17:10:54.667Z,0.23
2019-06-27T17:13:20.905Z,0.20
2019-06-27T17:15:47.186Z,0.20
2019-06-27T17:18:13.683Z,0.20
2019-06-27T17:20:39.854Z,0.40
2019-06-27T17:23:06.182Z,0.17
2019-06-27T17:25:32.475Z,0.17
2019-06-27T17:27:58.728Z,0.20
2019-06-27T17:30:24.993Z,0.23
2019-06-27T17:32:51.435Z,0.10
2019-06-27T17:35:20.293Z,0.57
2019-06-27T17:37:46.467Z,0.10
2019-06-27T17:40:12.889Z,0.30
2019-06-27T17:42:39.153Z,0.30
2019-06-27T17:45:05.897Z,0.20
2019-06-27T17:47:32.153Z,0.30
2019-06-27T17:49:58.399Z,0.20
2019-06-27T17:52:24.676Z,0.20
2019-06-27T17:54:50.915Z,0.50
2019-06-27T17:57:17.208Z,0.10
2019-06-27T17:59:43.467Z,0.10
2019-06-27T18:02:09.697Z,0.20
2019-06-27T18:04:35.863Z,0.20
2019-06-27T18:07:13.538Z,0.10
2019-06-27T18:09:30.088Z,0.20
2019-06-27T18:11:56.233Z,0.13
2019-06-27T18:14:22.570Z,0.30
2019-06-27T18:16:48.724Z,0.20
2019-06-27T18:19:14.961Z,0.20
2019-06-27T18:21:41.226Z,0.10
2019-06-27T18:24:07.457Z,0.20
2019-06-27T18:26:33.681Z,0.20
2019-06-27T18:28:59.936Z,0.10
2019-06-27T18:31:26.161Z,0.23
2019-06-27T18:33:52.290Z,0.23
2019-06-27T18:36:18.417Z,0.30
2019-06-27T18:38:44.564Z,0.20
2019-06-27T18:41:12.910Z,0.20
2019-06-27T18:43:38.994Z,0.30
2019-06-27T18:46:05.270Z,0.20
2019-06-27T18:48:31.512Z,0.20
2019-06-27T18:50:57.743Z,0.20
2019-06-27T18:53:23.992Z,0.10
2019-06-27T18:55:50.228Z,0.10
2019-06-27T18:58:16.466Z,0.10
2019-06-27T19:00:42.714Z,0.10
2019-06-27T19:03:08.944Z,0.17
2019-06-27T19:05:35.191Z,0.13
2019-06-27T19:08:01.453Z,0.20
2019-06-27T19:10:27.695Z,0.10
2019-06-27T19:12:53.922Z,0.43
2019-06-27T19:15:20.164Z,0.20
2019-06-27T19:17:46.397Z,0.30
2019-06-27T19:20:14.660Z,0.10
2019-06-27T19:22:54.620Z,0.20
2019-06-27T19:25:22.679Z,0.20
2019-06-27T19:27:48.899Z,0.30
2019-06-27T19:30:15.204Z,0.30
2019-06-27T19:32:41.480Z,0.30
2019-06-27T19:35:07.977Z,0.20
2019-06-27T19:37:34.223Z,0.23
2019-06-27T19:40:00.340Z,0.17
2019-06-27T19:42:26.582Z,0.17
2019-06-27T19:44:52.711Z,0.30
2019-06-27T19:47:18.939Z,0.30
2019-06-27T19:49:45.065Z,0.20
2019-06-27T19:52:11.303Z,0.17
2019-06-27T19:54:37.537Z,0.13
2019-06-27T19:57:03.800Z,0.17
2019-06-27T19:59:29.932Z,0.30
2019-06-27T20:01:57.010Z,0.20
2019-06-27T20:04:23.272Z,0.20
2019-06-27T20:06:49.504Z,0.40
2019-06-27T20:09:15.748Z,0.20
2019-06-27T20:11:41.983Z,0.20
2019-06-27T20:14:08.244Z,0.20
2019-06-27T20:16:34.519Z,0.37
2019-06-27T20:19:00.639Z,0.30
2019-06-27T20:21:26.884Z,0.30
2019-06-27T20:23:53.143Z,0.40
2019-06-27T20:26:19.258Z,0.33
2019-06-27T20:28:45.543Z,0.13
2019-06-27T20:31:11.686Z,0.13
2019-06-27T20:33:37.911Z,0.20
2019-06-27T20:36:04.059Z,0.40
2019-06-27T20:38:34.820Z,0.30
2019-06-27T20:40:58.335Z,0.30
2019-06-27T20:43:24.565Z,0.43
2019-06-27T20:45:50.750Z,0.10
2019-06-27T20:48:17.047Z,0.20
2019-06-27T20:50:43.289Z,0.40
2019-06-27T20:53:09.521Z,0.40
2019-06-27T20:55:35.749Z,0.30
2019-06-27T20:58:01.997Z,0.17
2019-06-27T21:00:28.360Z,0.10
2019-06-27T21:02:54.612Z,0.20
2019-06-27T21:05:20.765Z,0.40
2019-06-27T21:07:47.029Z,0.27
2019-06-27T21:10:13.662Z,0.20
2019-06-27T21:12:39.925Z,0.40
2019-06-27T21:15:06.942Z,0.20
2019-06-27T21:17:33.242Z,0.33
2019-06-27T21:19:59.473Z,0.30
2019-06-27T21:22:25.918Z,0.30
2019-06-27T21:24:52.164Z,0.40
2019-06-27T21:27:18.495Z,0.20
2019-06-27T21:29:44.760Z,0.20
2019-06-27T21:32:10.917Z,0.50
2019-06-27T21:34:37.165Z,0.20
2019-06-27T21:37:03.391Z,0.20
2019-06-27T21:39:29.643Z,0.33
2019-06-27T21:41:55.877Z,0.40
2019-06-27T21:44:22.113Z,0.50
2019-06-27T21:46:48.408Z,0.30
2019-06-27T21:49:14.645Z,0.20
2019-06-27T21:51:40.788Z,0.27
2019-06-27T21:54:07.032Z,0.20
2019-06-27T21:56:33.344Z,0.30
2019-06-27T21:58:59.570Z,0.30
2019-06-27T22:01:25.813Z,0.43
2019-06-27T22:03:52.104Z,0.40
2019-06-27T22:06:18.213Z,0.30
2019-06-27T22:08:44.476Z,0.20
2019-06-27T22:11:10.608Z,0.33
2019-06-27T22:13:36.751Z,0.53
2019-06-27T22:16:02.996Z,0.40
2019-06-27T22:18:29.237Z,0.30
2019-06-27T22:20:55.477Z,0.27
2019-06-27T22:23:21.749Z,0.30
2019-06-27T22:25:48.773Z,0.30
2019-06-27T22:28:15.020Z,0.43
2019-06-27T22:30:41.202Z,0.37
2019-06-27T22:33:07.530Z,0.30
2019-06-27T22:35:33.810Z,0.20
2019-06-27T22:38:18.395Z,0.30
2019-06-27T22:41:02.789Z,0.30
2019-06-27T22:43:47.454Z,0.30
2019-06-27T22:46:32.156Z,0.47
2019-06-27T22:48:59.186Z,0.30
2019-06-27T22:51:35.841Z,0.70
2019-06-27T22:54:03.920Z,0.27
2019-06-27T22:56:30.159Z,0.30
2019-06-27T22:58:56.300Z,0.37
2019-06-27T23:01:22.551Z,0.40
2019-06-27T23:03:48.786Z,0.53
2019-06-27T23:06:16.829Z,0.30
2019-06-27T23:08:43.067Z,0.17
2019-06-27T23:11:09.208Z,0.30
2019-06-27T23:13:35.451Z,0.40
2019-06-27T23:16:01.674Z,0.40
2019-06-27T23:18:27.832Z,0.40
2019-06-27T23:20:53.957Z,0.30
2019-06-27T23:23:20.097Z,0.50
2019-06-27T23:25:46.330Z,0.50
2019-06-27T23:28:12.481Z,0.37
2019-06-27T23:30:38.626Z,0.40
2019-06-27T23:33:04.756Z,0.77
2019-06-27T23:35:31.012Z,0.30
2019-06-27T23:37:57.159Z,0.80
2019-06-27T23:40:23.396Z,0.40
2019-06-27T23:42:49.624Z,0.50
2019-06-27T23:45:17.370Z,0.50
2019-06-27T23:47:43.595Z,0.40
2019-06-27T23:50:09.839Z,0.73
2019-06-27T23:52:36.053Z,0.63
2019-06-27T23:55:02.509Z,0.40
2019-06-27T23:57:28.732Z,0.50
2019-06-27T23:59:54.968Z,0.50
